METAR / TAF

METAR / TAF
Aktuelle Wetterdaten für Piloten (ohne Gewähr!)


Available data for LSZB from the past 2 hours
BERN/BELP
Metar
LSZB 012050Z AUTO 01004KT 310V030 8000 BKN011 SCT016 01/00 Q0990

20:50 UTC

Wind: 10° 4kt

Visibility: 8000 m

Sky: BKN 1100 ft

Temp: 1 deg C / 33.8 deg F

Dewpoint: 0 deg C / 32 deg F

Pressure: 990 hPa

TAF
TAF LSZB 011425Z 0115/0124 VRB03KT 3000 RASN BKN020 TEMPO 0115/0124 2000 -SN BKN008 PROB40 TEMPO 0115/0124 1000 SN VV004

Available data for LSGS from the past 2 hours
SION (MIL/CIV/AU
Metar
LSGS 012050Z AUTO 09003KT 9999 -RASN NCD 02/01 Q0992 RESN

20:50 UTC

Wind: 90° 3kt

Visibility: 9999 m

Sky:

Temp: 2 deg C / 35.6 deg F

Dewpoint: 1 deg C / 33.8 deg F

Pressure: 992 hPa

TAF
TAF LSGS 011425Z 0115/0124 VRB03KT 9999 SCT050 OVC080 TEMPO 0115/0121 4500 -SNRA OVC014

Available data for LSZG from the past 2 hours
GRENCHEN
Metar
LSZG 012050Z AUTO VRB02KT 4100 BR FEW002 BKN019 00/00 Q0991

20:50 UTC

Wind: ° 2kt

Visibility: 4100 m

Sky: FEW 200 ft

Temp: 0 deg C / 32 deg F

Dewpoint: 0 deg C / 32 deg F

Pressure: 991 hPa

TAF
TAF AMD LSZG 011932Z 0119/0124 VRB05KT 2500 BR FEW008 SCT012 BKN020 PROB30 0115/0124 4000 -SN BKN014 PROB40 TEMPO 0115/0124 1500 RASN BKN008 PROB30 TEMPO 0115/0124 0800 SN VV006

Available data for LSMP from the past 2 hours
PAYERNE (MIL/AUT
Metar
LSMP 012050Z 00000KT 3900 BR FEW012 BKN120 BKN140 01/00 Q0990 RMK GRN

20:50 UTC

Wind: 0° 0kt

Visibility: 3900 m

Sky: FEW 1200 ft

Temp: 1 deg C / 33.8 deg F

Dewpoint: 0 deg C / 32 deg F

Pressure: 990 hPa


Available data for LSZA from the past 2 hours
LUGANO (PVT/AUT)
Metar
LSZA 012050Z 00000KT 1800 -SN FEW002 BKN010 BKN020 00/M00 Q0995 NOSIG

20:50 UTC

Wind: 0° 0kt

Visibility: 1800 m

Sky: FEW 200 ft

Temp: 0 deg C / 32 deg F

Dewpoint: 0 deg C / 32 deg F

Pressure: 995 hPa

TAF
TAF LSZA 011425Z 0115/0124 VRB03KT 1000 SN VV006 TEMPO 0115/0124 2000 -SN BKN008 TEMPO 0118/0124 3000 RASN BKN010

Available data for LSZS from the past 2 hours
SAMEDAN
Metar
LSZS 012050Z AUTO 04003KT 0700 SN VV004 M00/M00 Q0988

20:50 UTC

Wind: 40° 3kt

Visibility: 700 m

Sky: VV 400 ft

Temp: 0 deg C / 32 deg F

Dewpoint: 0 deg C / 32 deg F

Pressure: 988 hPa

TAF
TAF LSZS 011425Z 0115/0124 18005KT 1500 SN VV005 TXM03/0115Z TEMPO 0115/0124 0500 +SN VV002